Time;durP1;ratioP1;P1;durP2;ratioP2;P2;SDS_P1;SDS_P2;PMS_P1;PMS_P2;Temp;Humidity;BMP_temperature;BMP_pressure;BME280_temperature;BME280_humidity;BME280_pressure;Samples;Min_cycle;Max_cycle;Signal;HPM_P1;HPM_P2
2022/11/29 00:01:56;;;;;;;3.40;1.15;;;;;;;6.54;100.00;100784.19;5021996;28;20046;-72
2022/11/29 00:04:25;;;;;;;2.88;0.82;;;;;;;6.56;100.00;100795.44;5025445;28;20049;-72
2022/11/29 00:06:54;;;;;;;2.65;1.00;;;;;;;6.56;100.00;100792.00;5020895;28;20519;-74
2022/11/29 00:09:23;;;;;;;5.07;1.15;;;;;;;6.58;100.00;100809.25;5017663;28;20052;-74
2022/11/29 00:14:39;;;;;;;1.02;0.75;;;;;;;6.57;100.00;100797.19;5021270;28;20060;-72
2022/11/29 00:17:07;;;;;;;2.05;0.95;;;;;;;6.58;100.00;100795.50;5021955;28;20049;-73
2022/11/29 00:19:38;;;;;;;2.22;1.00;;;;;;;6.55;100.00;100796.25;5026671;28;20894;-74
2022/11/29 00:22:07;;;;;;;1.58;0.88;;;;;;;6.55;100.00;100805.63;5022042;28;20141;-72
2022/11/29 00:24:36;;;;;;;4.00;1.02;;;;;;;6.52;100.00;100802.94;5021524;28;20053;-73
2022/11/29 00:27:05;;;;;;;3.58;1.15;;;;;;;6.49;100.00;100806.25;5025321;28;20075;-73
2022/11/29 00:29:34;;;;;;;3.75;1.30;;;;;;;6.44;99.12;100808.59;5022703;28;21178;-73
2022/11/29 00:32:05;;;;;;;1.67;0.90;;;;;;;6.33;98.06;100811.47;5014701;28;20471;-72
2022/11/29 00:34:34;;;;;;;4.90;1.48;;;;;;;6.24;99.06;100814.47;5016299;28;20583;-70
2022/11/29 00:37:03;;;;;;;56.58;21.35;;;;;;;6.15;100.00;100814.91;5019631;28;20045;-73
2022/11/29 00:39:31;;;;;;;3.58;1.45;;;;;;;6.14;100.00;100825.09;5014919;28;20748;-71
2022/11/29 00:42:00;;;;;;;93.03;43.38;;;;;;;6.12;100.00;100819.91;5026219;28;20071;-72
2022/11/29 00:44:29;;;;;;;120.53;42.83;;;;;;;6.08;100.00;100818.88;5027547;28;20410;-73
2022/11/29 00:46:57;;;;;;;46.05;21.08;;;;;;;6.06;100.00;100829.88;5025817;28;20151;-72
2022/11/29 00:49:28;;;;;;;73.63;28.88;;;;;;;6.02;100.00;100833.97;5027027;28;20044;-71
2022/11/29 00:51:56;;;;;;;2.85;1.17;;;;;;;5.98;100.00;100836.31;5031340;28;20096;-71
2022/11/29 00:54:25;;;;;;;3.92;1.40;;;;;;;5.89;100.00;100831.59;5028035;28;20046;-72
2022/11/29 00:56:54;;;;;;;4.32;2.45;;;;;;;5.80;100.00;100836.28;5025050;28;20068;-72
2022/11/29 00:59:22;;;;;;;4.15;1.95;;;;;;;5.78;100.00;100845.59;5030966;28;20128;-71
2022/11/29 01:01:51;;;;;;;3.78;2.15;;;;;;;5.74;100.00;100851.38;5024112;28;20070;-74
2022/11/29 01:04:20;;;;;;;5.47;2.05;;;;;;;5.72;100.00;100845.28;5029329;28;20191;-72
2022/11/29 01:06:52;;;;;;;4.45;2.05;;;;;;;5.68;100.00;100846.81;5025421;28;20392;-73
2022/11/29 01:09:21;;;;;;;5.95;2.75;;;;;;;5.66;100.00;100849.31;5020498;28;20050;-73
2022/11/29 01:11:51;;;;;;;4.15;2.30;;;;;;;5.63;100.00;100849.13;5025680;28;20052;-73
2022/11/29 01:14:20;;;;;;;4.07;2.05;;;;;;;5.61;100.00;100848.19;5021364;28;20069;-73
2022/11/29 01:16:49;;;;;;;4.10;1.90;;;;;;;5.60;100.00;100863.50;5029915;28;20053;-76
2022/11/29 01:19:18;;;;;;;4.55;2.10;;;;;;;5.56;100.00;100854.75;5021326;28;20049;-73
2022/11/29 01:21:46;;;;;;;2.65;2.05;;;;;;;5.53;100.00;100854.63;5020921;28;20041;-73
2022/11/29 01:24:17;;;;;;;4.70;2.05;;;;;;;5.48;100.00;100858.63;5026753;28;20046;-73
2022/11/29 01:26:45;;;;;;;3.08;1.58;;;;;;;5.43;100.00;100862.66;5028381;28;20067;-72
2022/11/29 01:29:14;;;;;;;2.72;1.77;;;;;;;5.37;100.00;100859.75;5026776;28;20628;-72
2022/11/29 01:31:43;;;;;;;2.80;1.80;;;;;;;5.32;100.00;100864.66;5023120;28;20055;-72
2022/11/29 01:34:12;;;;;;;2.60;1.70;;;;;;;5.29;100.00;100856.81;5023440;28;20450;-71
2022/11/29 01:36:41;;;;;;;5.30;2.10;;;;;;;5.20;100.00;100867.47;5029203;28;20049;-73
2022/11/29 01:39:11;;;;;;;3.97;1.90;;;;;;;5.11;99.51;100866.97;5021102;28;20093;-71
2022/11/29 01:41:41;;;;;;;3.28;1.98;;;;;;;4.92;100.00;100875.34;5024884;28;20140;-71
2022/11/29 01:44:42;;;;;;;3.88;2.15;;;;;;;4.75;100.00;100866.75;5025090;28;20052;-72
2022/11/29 01:47:12;;;;;;;6.95;1.65;;;;;;;4.68;100.00;100867.22;5025061;28;20053;-74
2022/11/29 01:49:45;;;;;;;2.55;1.58;;;;;;;4.61;100.00;100872.81;5029359;28;20484;-74
2022/11/29 01:52:18;;;;;;;2.90;1.40;;;;;;;4.56;100.00;100874.25;5022884;28;20060;-75
2022/11/29 01:54:50;;;;;;;42.85;23.98;;;;;;;4.56;100.00;100879.38;5024989;28;20044;-74
2022/11/29 01:57:21;;;;;;;36.50;17.95;;;;;;;4.48;100.00;100878.91;5022873;28;20045;-74
2022/11/29 01:59:55;;;;;;;5.68;2.75;;;;;;;4.50;100.00;100890.13;5032540;28;20234;-73
2022/11/29 02:02:30;;;;;;;2.05;1.60;;;;;;;4.52;100.00;100892.78;5026620;28;20049;-74
2022/11/29 02:05:01;;;;;;;2.38;1.85;;;;;;;4.48;100.00;100891.72;5029870;28;20414;-73
2022/11/29 02:07:29;;;;;;;2.85;1.95;;;;;;;4.44;100.00;100894.91;5030590;28;20056;-72
2022/11/29 02:09:58;;;;;;;3.58;1.73;;;;;;;4.37;100.00;100893.69;5019057;28;20140;-72
2022/11/29 02:12:38;;;;;;;5.15;2.08;;;;;;;4.34;100.00;100884.94;5032294;28;20047;-70
2022/11/29 02:15:22;;;;;;;2.58;1.88;;;;;;;4.32;100.00;100883.97;5028681;28;20049;-70
2022/11/29 02:18:07;;;;;;;1.98;1.38;;;;;;;4.30;100.00;100886.44;5030686;28;20064;-71
2022/11/29 02:21:10;;;;;;;3.90;2.22;;;;;;;4.29;100.00;100894.94;5020310;28;20041;-73
2022/11/29 02:23:52;;;;;;;;;;;;;;;4.27;100.00;100891.41;5028766;28;20056;-73
2022/11/29 02:26:42;;;;;;;4.55;1.90;;;;;;;4.23;100.00;100894.59;4993937;28;20387;-74
2022/11/29 02:29:39;;;;;;;9.07;2.67;;;;;;;4.19;100.00;100895.19;5026468;28;20348;-70
2022/11/29 02:32:39;;;;;;;5.15;1.65;;;;;;;4.14;100.00;100889.81;5028652;28;20125;-71
2022/11/29 02:35:21;;;;;;;5.70;2.05;;;;;;;4.13;100.00;100892.31;5028347;28;20923;-72
2022/11/29 02:38:07;;;;;;;5.20;2.45;;;;;;;4.09;100.00;100901.47;5025535;28;20045;-71
2022/11/29 02:40:57;;;;;;;3.65;1.63;;;;;;;4.05;100.00;100903.78;5027830;28;20045;-72
2022/11/29 02:43:50;;;;;;;6.47;2.35;;;;;;;3.99;99.84;100905.19;5026189;28;20065;-71
2022/11/29 02:46:41;;;;;;;2.72;2.10;;;;;;;3.93;99.82;100907.38;5028496;28;20144;-71
2022/11/29 02:49:21;;;;;;;6.55;1.77;;;;;;;3.88;100.00;100906.22;5014044;28;20071;-72
2022/11/29 02:51:58;;;;;;;4.68;2.10;;;;;;;3.85;99.36;100915.41;5025442;28;20048;-72
2022/11/29 02:54:34;;;;;;;3.60;1.88;;;;;;;3.79;99.67;100900.56;5028661;28;20057;-70
2022/11/29 02:57:12;;;;;;;3.67;2.17;;;;;;;3.75;99.78;100902.06;5031260;28;20060;-71
2022/11/29 02:59:49;;;;;;;7.18;2.05;;;;;;;3.70;99.73;100907.72;5030515;28;20581;-72
2022/11/29 03:02:25;;;;;;;2.30;1.85;;;;;;;3.62;100.00;100914.03;5030850;28;20045;-72
2022/11/29 03:05:04;;;;;;;5.85;2.08;;;;;;;3.54;100.00;100909.34;5027802;28;20614;-70
2022/11/29 03:07:41;;;;;;;3.72;2.35;;;;;;;3.50;99.48;100915.06;5029971;28;20055;-71
2022/11/29 03:10:21;;;;;;;2.92;1.88;;;;;;;3.45;99.73;100913.91;5028381;28;20204;-73
2022/11/29 03:12:52;;;;;;;11.43;6.03;;;;;;;3.41;99.90;100922.19;5029460;28;20046;-74
2022/11/29 03:15:29;;;;;;;2.55;1.58;;;;;;;3.37;99.98;100920.25;5021072;28;20047;-73
2022/11/29 03:18:23;;;;;;;6.97;2.95;;;;;;;3.33;98.88;100926.84;5028141;28;20045;-73
2022/11/29 03:21:06;;;;;;;3.97;2.25;;;;;;;3.28;98.69;100930.78;5028675;28;20125;-73
2022/11/29 03:23:38;;;;;;;15.98;5.53;;;;;;;3.25;99.49;100930.63;5024158;28;20484;-74
2022/11/29 03:26:11;;;;;;;4.75;2.50;;;;;;;3.22;99.90;100935.53;5022593;28;20422;-74
2022/11/29 03:28:42;;;;;;;;;;;;;;;3.21;99.53;100932.84;5024751;28;20618;-75
2022/11/29 03:31:24;;;;;;;10.45;4.47;;;;;;;3.14;99.78;100932.50;5026618;28;19920;-74
2022/11/29 03:34:00;;;;;;;21.10;8.85;;;;;;;3.13;100.00;100946.06;5029872;28;20501;-75
2022/11/29 03:36:38;;;;;;;13.35;4.43;;;;;;;3.12;100.00;100941.75;5014438;28;20056;-75
2022/11/29 03:39:11;;;;;;;6.47;3.13;;;;;;;3.09;100.00;100945.78;5023170;28;20049;-74
2022/11/29 03:41:47;;;;;;;6.20;2.80;;;;;;;3.02;100.00;100954.72;5031447;28;20064;-74
2022/11/29 03:44:19;;;;;;;8.73;3.47;;;;;;;2.95;100.00;100955.13;5029295;28;20049;-75
2022/11/29 03:46:55;;;;;;;5.20;2.55;;;;;;;2.95;100.00;100955.13;5023479;28;20061;-75
2022/11/29 03:49:30;;;;;;;4.82;2.63;;;;;;;2.96;100.00;100967.16;5022619;28;20410;-77
2022/11/29 03:52:08;;;;;;;8.32;3.70;;;;;;;2.96;100.00;100967.16;5027193;28;20128;-78
2022/11/29 03:54:50;;;;;;;9.85;5.53;;;;;;;2.96;100.00;100968.81;5026887;28;20057;-74
2022/11/29 03:57:24;;;;;;;11.10;4.35;;;;;;;2.94;100.00;100964.47;5022831;28;20049;-75
2022/11/29 04:00:00;;;;;;;10.25;4.28;;;;;;;2.88;100.00;100963.19;5033442;28;20124;-74
2022/11/29 04:03:01;;;;;;;8.45;4.40;;;;;;;2.86;100.00;100969.88;5033366;28;20117;-75
2022/11/29 04:05:45;;;;;;;11.80;4.15;;;;;;;2.84;100.00;100971.44;5025407;28;20045;-79
2022/11/29 04:08:56;;;;;;;5.60;3.30;;;;;;;2.81;100.00;100987.47;5023503;28;20560;-74
2022/11/29 04:11:53;;;;;;;10.45;3.90;;;;;;;2.77;100.00;100984.63;5015420;28;20049;-71
2022/11/29 04:14:57;;;;;;;8.82;3.47;;;;;;;2.77;100.00;100987.19;5014017;28;20046;-72
2022/11/29 04:17:52;;;;;;;7.85;4.30;;;;;;;2.75;100.00;100987.09;5018458;28;20042;-72
2022/11/29 04:20:55;;;;;;;4.20;2.67;;;;;;;2.73;100.00;100993.78;5032407;28;20068;-72
2022/11/29 04:23:56;;;;;;;10.95;4.43;;;;;;;2.68;100.00;100995.13;5030788;28;20038;-72
2022/11/29 04:26:54;;;;;;;6.43;3.38;;;;;;;2.65;100.00;100989.84;5038141;28;20384;-71
2022/11/29 04:29:49;;;;;;;10.15;3.45;;;;;;;2.61;100.00;100988.78;5026816;28;20068;-71
2022/11/29 04:32:39;;;;;;;11.18;3.95;;;;;;;2.61;100.00;100998.06;5046465;28;20064;-71
2022/11/29 04:35:32;;;;;;;10.45;4.00;;;;;;;2.58;100.00;101009.00;5024197;28;20099;-73
2022/11/29 04:38:25;;;;;;;;;;;;;;;2.52;100.00;101006.06;5028682;28;20060;-72
2022/11/29 04:41:23;;;;;;;10.18;3.35;;;;;;;2.44;99.34;101004.66;5023741;28;19932;-71
2022/11/29 04:44:08;;;;;;;8.90;3.40;;;;;;;2.29;100.00;101002.84;5033794;28;20049;-72
2022/11/29 04:47:05;;;;;;;6.22;3.00;;;;;;;2.25;100.00;101011.09;5029916;28;20048;-72
2022/11/29 04:49:51;;;;;;;6.25;2.97;;;;;;;2.24;100.00;101011.84;5031381;28;20046;-72
2022/11/29 04:52:49;;;;;;;4.97;2.72;;;;;;;2.22;100.00;101018.56;5025138;28;20064;-71
2022/11/29 04:55:28;;;;;;;5.57;3.00;;;;;;;2.20;100.00;101017.56;4997792;28;20044;-72
2022/11/29 04:58:09;;;;;;;6.63;2.92;;;;;;;2.20;100.00;101016.66;5029346;28;20042;-72
2022/11/29 05:00:46;;;;;;;3.42;2.10;;;;;;;2.19;100.00;101025.09;5025862;28;20638;-76
2022/11/29 05:03:22;;;;;;;6.32;2.83;;;;;;;2.16;100.00;101028.34;5031289;28;20053;-72
2022/11/29 05:05:59;;;;;;;5.97;3.67;;;;;;;2.13;100.00;101030.69;5030558;28;20046;-71
2022/11/29 05:08:39;;;;;;;8.13;3.63;;;;;;;2.12;100.00;101031.47;5026913;28;20050;-75
2022/11/29 05:11:19;;;;;;;9.00;4.85;;;;;;;2.11;100.00;101034.81;5030322;28;20485;-72
2022/11/29 05:13:57;;;;;;;8.75;3.50;;;;;;;2.10;100.00;101038.13;5029767;28;20041;-71
2022/11/29 05:16:46;;;;;;;5.55;3.58;;;;;;;2.10;100.00;101043.22;5027968;28;20057;-71
2022/11/29 05:19:47;;;;;;;11.13;6.25;;;;;;;2.07;100.00;101048.16;5027232;28;20092;-74
2022/11/29 05:22:29;;;;;;;9.55;4.65;;;;;;;2.06;100.00;101043.81;5025229;28;21054;-73
2022/11/29 05:25:17;;;;;;;8.70;4.20;;;;;;;2.03;100.00;101038.50;5030540;28;20048;-72
2022/11/29 05:27:50;;;;;;;10.38;3.45;;;;;;;2.04;100.00;101047.94;5028646;28;20072;-73
2022/11/29 05:30:23;;;;;;;7.47;3.88;;;;;;;2.02;100.00;101045.28;5028802;28;20054;-71
2022/11/29 05:32:58;;;;;;;8.27;3.65;;;;;;;2.02;100.00;101047.84;5031930;28;20053;-71
2022/11/29 05:35:54;;;;;;;10.27;4.10;;;;;;;1.99;100.00;101049.28;5025021;28;20060;-71
2022/11/29 05:38:40;;;;;;;11.00;6.10;;;;;;;1.96;100.00;101055.06;5015313;28;20052;-71
2022/11/29 05:41:23;;;;;;;18.33;6.47;;;;;;;1.95;100.00;101054.94;5027352;28;20057;-71
2022/11/29 05:44:05;;;;;;;9.82;6.03;;;;;;;1.95;100.00;101057.50;5024003;28;20048;-71
2022/11/29 05:46:45;;;;;;;13.45;6.15;;;;;;;1.93;100.00;101065.06;5026030;28;20053;-72
2022/11/29 05:49:25;;;;;;;18.02;7.18;;;;;;;1.93;100.00;101059.09;5029323;28;20132;-71
2022/11/29 05:52:05;;;;;;;16.92;6.13;;;;;;;1.93;100.00;101064.19;5031769;28;20037;-70
2022/11/29 05:54:39;;;;;;;18.65;8.15;;;;;;;1.83;100.00;101052.44;5023150;28;20041;-69
2022/11/29 05:57:15;;;;;;;15.45;7.03;;;;;;;1.91;100.00;101065.75;5025707;28;20041;-71
2022/11/29 05:59:46;;;;;;;20.05;9.52;;;;;;;1.88;100.00;101062.19;5018659;28;20570;-72
2022/11/29 06:02:30;;;;;;;21.83;8.57;;;;;;;1.88;100.00;101067.31;5030638;28;20049;-71
2022/11/29 06:05:11;;;;;;;26.63;8.73;;;;;;;1.88;100.00;101061.31;5026046;28;20080;-71
2022/11/29 06:07:47;;;;;;;11.50;6.15;;;;;;;1.87;100.00;101074.84;5030703;28;20133;-71
2022/11/29 06:10:19;;;;;;;17.08;6.13;;;;;;;1.85;100.00;101069.63;5024704;28;20045;-70
2022/11/29 06:13:01;;;;;;;18.70;7.53;;;;;;;1.84;100.00;101075.50;5017223;28;20041;-70
2022/11/29 06:16:07;;;;;;;22.42;7.22;;;;;;;1.83;100.00;101077.94;5034804;28;20053;-74
2022/11/29 06:19:03;;;;;;;18.85;7.18;;;;;;;1.82;100.00;101077.06;5027281;28;20063;-76
2022/11/29 06:21:41;;;;;;;17.10;7.55;;;;;;;1.78;100.00;101075.09;4987475;28;20042;-75
2022/11/29 06:24:34;;;;;;;17.73;8.05;;;;;;;1.80;100.00;101093.06;5032804;28;20080;-74
2022/11/29 06:27:09;;;;;;;;;;;;;;;1.74;100.00;101093.53;5022850;28;20506;-74
2022/11/29 06:29:46;;;;;;;23.20;9.88;;;;;;;1.68;100.00;101098.19;5031649;28;19932;-74
2022/11/29 06:32:26;;;;;;;26.40;8.38;;;;;;;1.64;100.00;101091.97;5029725;28;20133;-74
2022/11/29 06:35:02;;;;;;;18.90;9.20;;;;;;;1.62;100.00;101096.06;5030562;28;20045;-74
2022/11/29 06:37:37;;;;;;;22.33;11.93;;;;;;;1.63;100.00;101099.53;5030703;28;20045;-74
2022/11/29 06:40:10;;;;;;;29.67;11.35;;;;;;;1.63;100.00;101108.06;5027542;28;20057;-73
2022/11/29 06:42:38;;;;;;;;;;;;;;;1.64;100.00;101116.59;5031802;28;20422;-74
2022/11/29 06:45:08;;;;;;;12.30;6.18;;;;;;;1.64;100.00;101114.06;5023754;28;19928;-74
2022/11/29 06:47:44;;;;;;;12.35;6.10;;;;;;;1.63;100.00;101115.72;5024995;28;20133;-75
2022/11/29 06:50:31;;;;;;;22.17;6.95;;;;;;;1.62;100.00;101113.94;5029418;28;20051;-74
2022/11/29 06:53:07;;;;;;;18.70;6.95;;;;;;;1.63;100.00;101117.38;5026879;28;20045;-74
2022/11/29 06:55:48;;;;;;;21.35;9.52;;;;;;;1.61;100.00;101118.94;5026746;28;20064;-75
2022/11/29 06:58:33;;;;;;;27.05;10.07;;;;;;;1.60;100.00;101133.34;5026041;28;20064;-75
2022/11/29 07:01:11;;;;;;;22.92;8.65;;;;;;;1.61;100.00;101136.81;5026217;28;20499;-75
2022/11/29 07:04:15;;;;;;;21.35;10.38;;;;;;;1.60;100.00;101141.00;5025684;28;20041;-74
2022/11/29 07:06:46;;;;;;;23.10;9.40;;;;;;;1.57;100.00;101142.44;5028680;28;20054;-75
2022/11/29 07:09:17;;;;;;;20.77;8.10;;;;;;;1.56;100.00;101140.66;5021178;28;20045;-75
2022/11/29 07:11:47;;;;;;;23.17;8.20;;;;;;;1.55;100.00;101149.97;5031396;28;20042;-74
2022/11/29 07:14:16;;;;;;;24.05;8.43;;;;;;;1.54;100.00;101149.91;5014924;28;20521;-75
2022/11/29 07:16:52;;;;;;;15.15;8.15;;;;;;;1.52;100.00;101147.22;5028529;28;20060;-74
2022/11/29 07:19:30;;;;;;;14.80;7.20;;;;;;;1.53;100.00;101153.19;5030544;28;20086;-74
2022/11/29 07:22:12;;;;;;;17.63;6.68;;;;;;;1.49;100.00;101156.31;5020692;28;20045;-74
2022/11/29 07:25:02;;;;;;;18.23;6.70;;;;;;;1.38;100.00;101163.19;5028565;28;20042;-75
2022/11/29 07:27:39;;;;;;;19.48;7.38;;;;;;;1.32;100.00;101162.75;5031021;28;20129;-75
2022/11/29 07:30:14;;;;;;;18.80;6.80;;;;;;;1.32;100.00;101168.72;5028011;28;20049;-75
2022/11/29 07:32:53;;;;;;;14.57;6.45;;;;;;;1.32;100.00;101163.63;5026961;28;20044;-74
2022/11/29 07:35:30;;;;;;;17.73;5.78;;;;;;;1.31;100.00;101160.97;5017491;28;20136;-74
2022/11/29 07:38:16;;;;;;;13.02;6.38;;;;;;;1.31;100.00;101156.75;5023932;28;20041;-74
2022/11/29 07:40:52;;;;;;;14.77;7.65;;;;;;;1.32;100.00;101152.53;5021469;28;20042;-74
2022/11/29 07:43:32;;;;;;;16.75;7.78;;;;;;;1.27;100.00;101149.66;5023145;28;20045;-75
2022/11/29 07:46:01;;;;;;;11.95;6.80;;;;;;;1.27;100.00;101149.66;5018666;28;20612;-74
2022/11/29 07:48:30;;;;;;;14.95;6.25;;;;;;;1.19;100.00;101133.81;5021238;28;20509;-74
2022/11/29 07:50:58;;;;;;;22.20;8.07;;;;;;;1.24;100.00;101144.34;5025748;28;20057;-74
2022/11/29 07:53:29;;;;;;;14.27;6.97;;;;;;;1.20;100.00;101142.34;5017981;28;20073;-74
2022/11/29 07:55:58;;;;;;;18.20;8.85;;;;;;;1.19;100.00;101141.47;5025883;28;20100;-73
2022/11/29 07:58:28;;;;;;;22.98;7.93;;;;;;;1.16;100.00;101141.22;5029500;28;20050;-74
2022/11/29 08:00:56;;;;;;;28.42;9.70;;;;;;;1.16;100.00;101147.97;5026800;28;20120;-74
2022/11/29 08:03:25;;;;;;;21.38;8.45;;;;;;;1.13;100.00;101151.19;5025380;28;20038;-75
2022/11/29 08:05:54;;;;;;;22.88;10.10;;;;;;;1.10;100.00;101161.19;5028745;28;20046;-75
2022/11/29 08:08:22;;;;;;;26.83;11.05;;;;;;;1.08;100.00;101166.91;5020485;28;20045;-75
2022/11/29 08:10:53;;;;;;;24.23;10.27;;;;;;;1.04;99.91;101166.69;5039110;28;20049;-75
2022/11/29 08:13:22;;;;;;;21.83;9.45;;;;;;;1.04;100.00;101169.25;5023320;28;20046;-75
2022/11/29 08:15:51;;;;;;;17.63;9.00;;;;;;;1.03;99.59;101175.13;5023648;28;20487;-75
2022/11/29 08:18:19;;;;;;;16.98;8.05;;;;;;;1.02;99.94;101185.19;5030441;28;20042;-75
2022/11/29 08:20:48;;;;;;;20.10;8.32;;;;;;;1.01;99.51;101184.31;5025223;28;20588;-75
2022/11/29 08:23:17;;;;;;;11.45;6.68;;;;;;;1.01;100.00;101180.88;5023869;28;20042;-75
2022/11/29 08:25:46;;;;;;;10.30;5.25;;;;;;;0.99;100.00;101183.31;5029442;28;20497;-75
2022/11/29 08:28:16;;;;;;;9.50;4.68;;;;;;;1.00;99.76;101184.19;5028962;28;20518;-74
2022/11/29 08:30:44;;;;;;;15.88;5.30;;;;;;;0.98;99.05;101191.72;5029697;28;20039;-74
2022/11/29 08:33:13;;;;;;;11.25;4.80;;;;;;;0.98;99.79;101195.94;5027646;28;20056;-74
2022/11/29 08:35:42;;;;;;;8.60;4.82;;;;;;;0.97;100.00;101197.59;5024899;28;20049;-75
2022/11/29 08:38:10;;;;;;;6.97;5.25;;;;;;;0.96;100.00;101193.28;5028517;28;20060;-75
2022/11/29 08:40:39;;;;;;;9.65;4.25;;;;;;;0.95;100.00;101191.50;5017934;28;20093;-75
2022/11/29 08:43:08;;;;;;;8.75;4.38;;;;;;;0.94;100.00;101184.63;5015131;28;20133;-75
2022/11/29 08:45:38;;;;;;;8.80;4.32;;;;;;;0.91;100.00;101176.75;5017647;28;20054;-75
2022/11/29 08:48:07;;;;;;;10.60;4.68;;;;;;;0.89;100.00;101175.72;5024103;28;20509;-75
2022/11/29 08:50:36;;;;;;;9.20;5.25;;;;;;;0.88;100.00;101161.22;5021473;28;20053;-75
2022/11/29 08:56:01;;;;;;;13.40;4.38;;;;;;;0.81;100.00;101156.47;4974157;28;20081;-74
2022/11/29 08:58:29;;;;;;;7.25;4.18;;;;;;;0.80;100.00;101155.56;5025904;28;20076;-74
2022/11/29 09:01:00;;;;;;;8.50;4.65;;;;;;;0.80;100.00;101159.75;5028516;28;20583;-74
2022/11/29 09:06:15;;;;;;;4.88;3.47;;;;;;;0.79;100.00;101158.88;5030873;28;20059;-74
2022/11/29 09:08:45;;;;;;;8.65;3.85;;;;;;;0.78;100.00;101167.31;5034343;28;20612;-74
2022/11/29 09:11:15;;;;;;;5.10;3.35;;;;;;;0.77;100.00;101172.28;5022036;28;20057;-74
2022/11/29 09:13:47;;;;;;;10.05;3.78;;;;;;;0.75;100.00;101186.56;5022536;28;20658;-74
2022/11/29 09:16:19;;;;;;;5.65;3.15;;;;;;;0.74;99.34;101177.16;5020505;28;20058;-76
2022/11/29 09:18:48;;;;;;;7.80;3.83;;;;;;;0.69;98.66;101186.09;5015504;28;20614;-75
2022/11/29 09:21:18;;;;;;;5.18;3.53;;;;;;;0.67;99.05;101190.19;5027079;28;20068;-75
2022/11/29 09:23:47;;;;;;;6.30;3.53;;;;;;;0.65;98.30;101186.66;5021359;28;20048;-75
2022/11/29 09:26:19;;;;;;;5.85;2.70;;;;;;;0.59;98.33;101172.66;5018789;28;20045;-75
2022/11/29 09:28:48;;;;;;;4.90;3.20;;;;;;;0.56;98.27;101171.56;5032179;28;20052;-75
2022/11/29 09:31:20;;;;;;;5.60;3.42;;;;;;;0.53;98.18;101169.66;5032959;28;20400;-75
2022/11/29 09:33:49;;;;;;;6.57;3.80;;;;;;;0.52;99.02;101180.59;5031985;28;20103;-75
2022/11/29 09:36:18;;;;;;;5.50;3.63;;;;;;;0.50;98.79;101187.22;5022666;28;20041;-74
2022/11/29 09:38:47;;;;;;;10.27;4.85;;;;;;;0.49;98.33;101193.09;5020614;28;20049;-74
2022/11/29 09:41:33;;;;;;;7.78;3.95;;;;;;;0.46;98.89;101192.88;5027851;28;20054;-74
2022/11/29 09:44:09;;;;;;;6.90;3.67;;;;;;;0.47;98.20;101194.66;5007912;28;20104;-75
2022/11/29 09:46:49;;;;;;;6.63;3.80;;;;;;;0.46;99.45;101191.97;5006544;28;20044;-75
2022/11/29 09:49:47;;;;;;;9.25;4.18;;;;;;;0.46;99.40;101197.97;5007819;28;20050;-75
2022/11/29 09:52:23;;;;;;;8.85;3.30;;;;;;;0.44;99.15;101202.06;5007285;28;20053;-75
2022/11/29 09:54:58;;;;;;;7.18;3.35;;;;;;;0.44;99.40;101207.16;5003991;28;20042;-75
2022/11/29 09:57:29;;;;;;;8.48;4.57;;;;;;;0.43;99.02;101213.00;5010396;28;20487;-74
2022/11/29 10:00:03;;;;;;;7.38;3.78;;;;;;;0.40;100.00;101210.22;5011872;28;20042;-76
2022/11/29 10:02:44;;;;;;;12.52;5.20;;;;;;;0.45;100.00;101221.63;5007820;28;20684;-75
2022/11/29 10:05:20;;;;;;;9.88;4.93;;;;;;;0.45;100.00;101221.63;5004570;28;20050;-75
2022/11/29 10:07:52;;;;;;;10.38;5.50;;;;;;;0.44;99.88;101216.44;5008856;28;20543;-74
2022/11/29 10:10:28;;;;;;;9.32;4.07;;;;;;;0.43;100.00;101223.19;5008875;28;20089;-74
2022/11/29 10:13:00;;;;;;;8.52;4.32;;;;;;;0.43;100.00;101214.66;5006639;28;20112;-75
2022/11/29 10:15:32;;;;;;;12.82;4.82;;;;;;;0.43;100.00;101213.00;5010185;28;20044;-74
2022/11/29 10:18:06;;;;;;;15.47;4.50;;;;;;;0.44;100.00;101214.78;5010922;28;20049;-74
2022/11/29 10:20:38;;;;;;;16.30;7.60;;;;;;;0.45;100.00;101219.09;5011677;28;20538;-75
2022/11/29 10:23:16;;;;;;;16.60;7.95;;;;;;;0.46;100.00;101222.53;4998926;28;20042;-77
2022/11/29 10:25:49;;;;;;;11.25;4.85;;;;;;;0.46;100.00;101233.63;4994702;28;20051;-76
2022/11/29 10:28:20;;;;;;;13.18;6.97;;;;;;;0.42;99.76;101234.13;5009547;28;20049;-75
2022/11/29 10:30:49;;;;;;;14.43;5.20;;;;;;;0.42;99.48;101231.59;5011243;28;20042;-76
2022/11/29 10:33:24;;;;;;;13.90;5.32;;;;;;;0.40;98.54;101233.13;5010476;28;20039;-76
2022/11/29 10:35:57;;;;;;;4.75;3.38;;;;;;;0.38;98.76;101230.47;5006090;28;20047;-75
2022/11/29 10:38:25;;;;;;;10.50;3.90;;;;;;;0.38;98.24;101239.75;4993163;28;20050;-76
2022/11/29 10:40:59;;;;;;;8.52;4.43;;;;;;;0.36;98.43;101237.09;5013052;28;20050;-76
2022/11/29 10:43:28;;;;;;;9.43;3.95;;;;;;;0.35;98.38;101234.44;5005228;28;20062;-76
2022/11/29 10:45:57;;;;;;;8.20;3.92;;;;;;;0.35;98.83;101226.81;5002912;28;20050;-76
2022/11/29 10:48:31;;;;;;;8.88;5.38;;;;;;;0.35;99.69;101227.69;5008065;28;20053;-77
2022/11/29 10:51:01;;;;;;;15.15;5.05;;;;;;;0.34;99.46;101222.47;5009646;28;20070;-76
2022/11/29 10:53:34;;;;;;;11.05;4.97;;;;;;;0.35;99.93;101232.78;5002658;28;20043;-76
2022/11/29 10:56:07;;;;;;;13.48;5.00;;;;;;;0.26;99.22;101210.81;4997930;28;20088;-76
2022/11/29 10:58:37;;;;;;;10.90;5.93;;;;;;;0.34;100.00;101222.47;5003217;28;20061;-76
2022/11/29 11:01:07;;;;;;;16.92;5.95;;;;;;;0.36;100.00;101210.75;4996962;28;20162;-76
2022/11/29 11:03:41;;;;;;;19.95;6.85;;;;;;;0.37;100.00;101212.53;5006220;28;20553;-76
2022/11/29 11:06:12;;;;;;;11.40;5.13;;;;;;;0.36;100.00;101206.53;5009883;28;20052;-76
2022/11/29 11:08:44;;;;;;;11.77;5.72;;;;;;;0.35;100.00;101206.44;5004930;28;20053;-76
2022/11/29 11:11:14;;;;;;;11.98;4.43;;;;;;;0.31;100.00;101217.16;4996268;28;20062;-77
2022/11/29 11:13:43;;;;;;;10.77;5.43;;;;;;;0.29;100.00;101213.59;5006185;28;20149;-76
2022/11/29 11:16:17;;;;;;;10.18;4.78;;;;;;;0.30;100.00;101215.34;5002963;28;20527;-76
2022/11/29 11:18:49;;;;;;;10.65;4.45;;;;;;;0.29;100.00;101224.66;5011204;28;20046;-76
2022/11/29 11:21:21;;;;;;;14.00;6.03;;;;;;;0.32;100.00;101222.38;5009683;28;20046;-75
2022/11/29 11:23:56;;;;;;;14.77;5.32;;;;;;;0.31;100.00;101222.22;5000518;28;20539;-77
2022/11/29 11:26:26;;;;;;;13.45;5.88;;;;;;;0.34;100.00;101225.00;5008416;28;20042;-77
2022/11/29 11:28:58;;;;;;;12.15;4.60;;;;;;;0.36;100.00;101223.47;4997792;28;20499;-75
2022/11/29 11:31:28;;;;;;;;;;;;;;;0.37;100.00;101225.25;4993550;28;20133;-76
2022/11/29 11:34:26;;;;;;;5.20;3.30;;;;;;;0.38;100.00;101222.81;4997748;28;19921;-76
2022/11/29 11:37:11;;;;;;;7.63;3.58;;;;;;;0.41;100.00;101225.63;5006313;28;20048;-77
2022/11/29 11:39:40;;;;;;;5.82;3.55;;;;;;;0.44;100.00;101224.97;5007523;28;20417;-76
2022/11/29 11:44:59;;;;;;;5.60;4.18;;;;;;;0.48;100.00;101205.72;5026040;28;20061;-76
2022/11/29 11:47:29;;;;;;;5.88;3.80;;;;;;;0.47;100.00;101206.50;5031661;28;20114;-76
2022/11/29 11:50:11;;;;;;;8.90;5.03;;;;;;;0.50;100.00;101204.16;5024149;28;20057;-77
2022/11/29 11:52:44;;;;;;;9.48;4.40;;;;;;;0.52;100.00;101203.50;5024229;28;20063;-76
2022/11/29 11:55:37;;;;;;;7.03;4.47;;;;;;;0.51;100.00;101196.66;5027832;28;20419;-76
2022/11/29 11:58:18;;;;;;;14.27;5.05;;;;;;;0.53;100.00;101205.31;5024172;28;20061;-77
2022/11/29 12:00:50;;;;;;;11.73;5.25;;;;;;;0.55;100.00;101213.97;5030842;28;20084;-76
2022/11/29 12:03:27;;;;;;;8.27;4.25;;;;;;;0.56;100.00;101219.94;5019446;28;20491;-76
2022/11/29 12:06:04;;;;;;;8.07;4.03;;;;;;;0.56;100.00;101219.94;5029124;28;20538;-75
2022/11/29 12:08:34;;;;;;;10.98;4.60;;;;;;;0.57;100.00;101220.06;5027813;28;20139;-76
2022/11/29 12:11:08;;;;;;;13.27;4.63;;;;;;;0.61;100.00;101204.22;5018816;28;20053;-76
2022/11/29 12:13:42;;;;;;;7.53;3.60;;;;;;;0.63;100.00;101217.97;5022006;28;20042;-77
2022/11/29 12:16:16;;;;;;;11.75;4.05;;;;;;;0.68;100.00;101222.53;5023326;28;20045;-75
2022/11/29 12:18:49;;;;;;;10.95;4.30;;;;;;;0.72;100.00;101230.50;5013844;28;20069;-75